sensor_id;sensor_type;location;lat;lon;timestamp;pressure;altitude;pressure_sealevel;temperature;humidity
54822;BME280;41299;43.546;16.426;2022-07-23T00:02:09;101470.25;;;25.57;100.00
54822;BME280;41299;43.546;16.426;2022-07-23T00:04:34;101465.34;;;25.48;100.00
54822;BME280;41299;43.546;16.426;2022-07-23T00:07:00;101469.09;;;25.44;100.00
54822;BME280;41299;43.546;16.426;2022-07-23T00:09:25;101469.78;;;25.47;100.00
54822;BME280;41299;43.546;16.426;2022-07-23T00:11:51;101473.56;;;25.42;100.00
54822;BME280;41299;43.546;16.426;2022-07-23T00:14:16;101472.28;;;25.31;100.00
54822;BME280;41299;43.546;16.426;2022-07-23T00:16:42;101471.78;;;25.42;100.00
54822;BME280;41299;43.546;16.426;2022-07-23T00:19:08;101475.41;;;25.39;100.00
54822;BME280;41299;43.546;16.426;2022-07-23T00:21:33;101476.34;;;25.38;100.00
54822;BME280;41299;43.546;16.426;2022-07-23T00:23:59;101476.63;;;25.32;100.00
54822;BME280;41299;43.546;16.426;2022-07-23T00:26:24;101480.06;;;25.34;100.00
54822;BME280;41299;43.546;16.426;2022-07-23T00:28:50;101476.75;;;25.29;100.00
54822;BME280;41299;43.546;16.426;2022-07-23T00:31:15;101476.75;;;25.29;100.00
54822;BME280;41299;43.546;16.426;2022-07-23T00:33:41;101470.69;;;25.27;100.00
54822;BME280;41299;43.546;16.426;2022-07-23T00:36:06;101469.06;;;25.24;100.00
54822;BME280;41299;43.546;16.426;2022-07-23T00:38:32;101469.84;;;25.26;100.00
54822;BME280;41299;43.546;16.426;2022-07-23T00:40:57;101462.91;;;25.24;100.00
54822;BME280;41299;43.546;16.426;2022-07-23T00:43:23;101466.41;;;25.24;100.00
54822;BME280;41299;43.546;16.426;2022-07-23T00:45:49;101463.06;;;25.21;100.00
54822;BME280;41299;43.546;16.426;2022-07-23T00:48:14;101464.91;;;25.19;100.00
54822;BME280;41299;43.546;16.426;2022-07-23T00:50:40;101471.09;;;25.18;100.00
54822;BME280;41299;43.546;16.426;2022-07-23T00:53:05;101463.34;;;25.15;100.00
54822;BME280;41299;43.546;16.426;2022-07-23T00:55:32;101467.91;;;25.11;100.00
54822;BME280;41299;43.546;16.426;2022-07-23T00:57:58;101462.69;;;25.09;100.00
54822;BME280;41299;43.546;16.426;2022-07-23T01:00:23;101464.34;;;25.12;100.00
54822;BME280;41299;43.546;16.426;2022-07-23T01:02:49;101460.03;;;25.09;100.00
54822;BME280;41299;43.546;16.426;2022-07-23T01:05:15;101461.31;;;25.00;100.00
54822;BME280;41299;43.546;16.426;2022-07-23T01:07:40;101458.19;;;24.91;100.00
54822;BME280;41299;43.546;16.426;2022-07-23T01:10:08;101460.28;;;24.84;100.00
54822;BME280;41299;43.546;16.426;2022-07-23T01:12:53;101459.41;;;24.83;100.00
54822;BME280;41299;43.546;16.426;2022-07-23T01:15:19;101458.78;;;24.77;100.00
54822;BME280;41299;43.546;16.426;2022-07-23T01:17:44;101456.34;;;24.72;100.00
54822;BME280;41299;43.546;16.426;2022-07-23T01:20:10;101460.78;;;24.71;100.00
54822;BME280;41299;43.546;16.426;2022-07-23T01:22:35;101457.97;;;24.74;100.00
54822;BME280;41299;43.546;16.426;2022-07-23T01:25:01;101461.50;;;24.75;100.00
54822;BME280;41299;43.546;16.426;2022-07-23T01:27:26;101457.78;;;24.79;100.00
54822;BME280;41299;43.546;16.426;2022-07-23T01:29:54;101459.63;;;24.77;100.00
54822;BME280;41299;43.546;16.426;2022-07-23T01:32:19;101451.22;;;24.69;100.00
54822;BME280;41299;43.546;16.426;2022-07-23T01:34:45;101452.31;;;24.63;100.00
54822;BME280;41299;43.546;16.426;2022-07-23T01:37:10;101449.88;;;24.58;100.00
54822;BME280;41299;43.546;16.426;2022-07-23T01:39:35;101449.22;;;24.53;100.00
54822;BME280;41299;43.546;16.426;2022-07-23T01:42:01;101448.56;;;24.48;100.00
54822;BME280;41299;43.546;16.426;2022-07-23T01:44:26;101455.78;;;24.43;100.00
54822;BME280;41299;43.546;16.426;2022-07-23T01:46:52;101449.84;;;24.38;100.00
54822;BME280;41299;43.546;16.426;2022-07-23T01:49:17;101450.84;;;24.35;100.00
54822;BME280;41299;43.546;16.426;2022-07-23T01:51:42;101459.66;;;24.34;100.00
54822;BME280;41299;43.546;16.426;2022-07-23T01:54:28;101448.13;;;24.37;100.00
54822;BME280;41299;43.546;16.426;2022-07-23T01:56:54;101457.38;;;24.47;100.00
54822;BME280;41299;43.546;16.426;2022-07-23T01:59:20;101458.16;;;24.49;100.00
54822;BME280;41299;43.546;16.426;2022-07-23T02:01:45;101459.09;;;24.48;100.00
54822;BME280;41299;43.546;16.426;2022-07-23T02:04:11;101458.22;;;24.47;100.00
54822;BME280;41299;43.546;16.426;2022-07-23T02:06:36;101449.69;;;24.42;100.00
54822;BME280;41299;43.546;16.426;2022-07-23T02:09:02;101457.66;;;24.41;100.00
54822;BME280;41299;43.546;16.426;2022-07-23T02:11:27;101456.06;;;24.37;100.00
54822;BME280;41299;43.546;16.426;2022-07-23T02:13:53;101451.75;;;24.34;100.00
54822;BME280;41299;43.546;16.426;2022-07-23T02:16:18;101465.00;;;24.32;100.00
54822;BME280;41299;43.546;16.426;2022-07-23T02:18:44;101461.56;;;24.30;100.00
54822;BME280;41299;43.546;16.426;2022-07-23T02:21:11;101465.25;;;24.26;100.00
54822;BME280;41299;43.546;16.426;2022-07-23T02:23:36;101465.50;;;24.20;100.00
54822;BME280;41299;43.546;16.426;2022-07-23T02:26:02;101472.72;;;24.15;100.00
54822;BME280;41299;43.546;16.426;2022-07-23T02:28:27;101472.97;;;24.09;100.00
54822;BME280;41299;43.546;16.426;2022-07-23T02:30:52;101466.09;;;24.04;100.00
54822;BME280;41299;43.546;16.426;2022-07-23T02:33:18;101475.03;;;24.00;100.00
54822;BME280;41299;43.546;16.426;2022-07-23T02:35:43;101471.59;;;23.98;100.00
54822;BME280;41299;43.546;16.426;2022-07-23T02:38:09;101469.94;;;23.96;100.00
54822;BME280;41299;43.546;16.426;2022-07-23T02:40:34;101476.13;;;23.94;100.00
54822;BME280;41299;43.546;16.426;2022-07-23T02:42:59;101468.28;;;23.93;100.00
54822;BME280;41299;43.546;16.426;2022-07-23T02:45:25;101469.25;;;23.90;100.00
54822;BME280;41299;43.546;16.426;2022-07-23T02:47:50;101470.88;;;23.94;100.00
54822;BME280;41299;43.546;16.426;2022-07-23T02:50:16;101466.28;;;24.00;100.00
54822;BME280;41299;43.546;16.426;2022-07-23T02:52:41;101482.94;;;24.00;100.00
54822;BME280;41299;43.546;16.426;2022-07-23T02:55:07;101472.41;;;24.00;100.00
54822;BME280;41299;43.546;16.426;2022-07-23T02:57:33;101481.34;;;23.96;100.00
54822;BME280;41299;43.546;16.426;2022-07-23T02:59:58;101477.25;;;23.89;100.00
54822;BME280;41299;43.546;16.426;2022-07-23T03:02:23;101483.59;;;23.83;100.00
54822;BME280;41299;43.546;16.426;2022-07-23T03:04:49;101485.50;;;23.79;100.00
54822;BME280;41299;43.546;16.426;2022-07-23T03:07:16;101485.69;;;23.75;100.00
54822;BME280;41299;43.546;16.426;2022-07-23T03:09:42;101483.28;;;23.69;100.00
54822;BME280;41299;43.546;16.426;2022-07-23T03:12:07;101479.00;;;23.66;100.00
54822;BME280;41299;43.546;16.426;2022-07-23T03:14:33;101484.34;;;23.63;100.00
54822;BME280;41299;43.546;16.426;2022-07-23T03:16:58;101473.97;;;23.60;100.00
54822;BME280;41299;43.546;16.426;2022-07-23T03:19:25;101477.38;;;23.62;100.00
54822;BME280;41299;43.546;16.426;2022-07-23T03:21:50;101471.19;;;23.63;100.00
54822;BME280;41299;43.546;16.426;2022-07-23T03:24:16;101472.66;;;23.70;100.00
54822;BME280;41299;43.546;16.426;2022-07-23T03:26:43;101481.38;;;23.72;100.00
54822;BME280;41299;43.546;16.426;2022-07-23T03:29:08;101483.38;;;23.65;100.00
54822;BME280;41299;43.546;16.426;2022-07-23T03:31:34;101477.38;;;23.62;100.00
54822;BME280;41299;43.546;16.426;2022-07-23T03:33:59;101480.81;;;23.64;100.00
54822;BME280;41299;43.546;16.426;2022-07-23T03:36:25;101481.38;;;23.72;100.00
54822;BME280;41299;43.546;16.426;2022-07-23T03:38:51;101491.00;;;23.73;100.00
54822;BME280;41299;43.546;16.426;2022-07-23T03:41:18;101496.59;;;23.88;100.00
54822;BME280;41299;43.546;16.426;2022-07-23T03:43:43;101501.19;;;23.83;100.00
54822;BME280;41299;43.546;16.426;2022-07-23T03:46:08;101501.97;;;23.85;100.00
54822;BME280;41299;43.546;16.426;2022-07-23T03:48:35;101503.00;;;23.80;100.00
54822;BME280;41299;43.546;16.426;2022-07-23T03:51:00;101501.09;;;23.84;100.00
54822;BME280;41299;43.546;16.426;2022-07-23T03:53:26;101501.06;;;23.86;100.00
54822;BME280;41299;43.546;16.426;2022-07-23T03:55:51;101502.94;;;23.82;100.00
54822;BME280;41299;43.546;16.426;2022-07-23T03:58:16;101500.50;;;23.77;100.00
54822;BME280;41299;43.546;16.426;2022-07-23T04:00:42;101498.91;;;23.73;100.00
54822;BME280;41299;43.546;16.426;2022-07-23T04:03:07;101503.59;;;23.65;100.00
54822;BME280;41299;43.546;16.426;2022-07-23T04:05:33;101500.09;;;23.64;100.00
54822;BME280;41299;43.546;16.426;2022-07-23T04:07:58;101500.34;;;23.58;100.00
54822;BME280;41299;43.546;16.426;2022-07-23T04:10:24;101504.63;;;23.61;100.00
54822;BME280;41299;43.546;16.426;2022-07-23T04:12:49;101503.91;;;23.57;100.00
54822;BME280;41299;43.546;16.426;2022-07-23T04:15:15;101510.22;;;23.51;100.00
54822;BME280;41299;43.546;16.426;2022-07-23T04:17:40;101514.69;;;23.49;100.00
54822;BME280;41299;43.546;16.426;2022-07-23T04:20:06;101517.56;;;23.43;100.00
54822;BME280;41299;43.546;16.426;2022-07-23T04:22:31;101527.16;;;23.44;100.00
54822;BME280;41299;43.546;16.426;2022-07-23T04:24:57;101526.44;;;23.40;100.00
54822;BME280;41299;43.546;16.426;2022-07-23T04:27:22;101531.75;;;23.39;100.00
54822;BME280;41299;43.546;16.426;2022-07-23T04:29:48;101524.75;;;23.38;100.00
54822;BME280;41299;43.546;16.426;2022-07-23T04:32:13;101531.00;;;23.35;100.00
54822;BME280;41299;43.546;16.426;2022-07-23T04:34:39;101528.84;;;23.47;100.00
54822;BME280;41299;43.546;16.426;2022-07-23T04:37:04;101527.69;;;23.54;100.00
54822;BME280;41299;43.546;16.426;2022-07-23T04:39:29;101528.09;;;23.67;100.00
54822;BME280;41299;43.546;16.426;2022-07-23T04:41:55;101521.44;;;23.80;100.00
54822;BME280;41299;43.546;16.426;2022-07-23T04:44:21;101520.31;;;23.88;100.00
54822;BME280;41299;43.546;16.426;2022-07-23T04:46:46;101518.31;;;23.93;100.00
54822;BME280;41299;43.546;16.426;2022-07-23T04:49:12;101524.53;;;23.92;100.00
54822;BME280;41299;43.546;16.426;2022-07-23T04:51:37;101512.09;;;23.96;100.00
54822;BME280;41299;43.546;16.426;2022-07-23T04:54:03;101510.13;;;24.01;100.00
54822;BME280;41299;43.546;16.426;2022-07-23T04:56:28;101520.41;;;24.09;100.00
54822;BME280;41299;43.546;16.426;2022-07-23T04:58:54;101518.41;;;24.15;100.00
54822;BME280;41299;43.546;16.426;2022-07-23T05:01:19;101521.47;;;24.27;100.00
54822;BME280;41299;43.546;16.426;2022-07-23T05:03:44;101516.06;;;24.30;100.00
54822;BME280;41299;43.546;16.426;2022-07-23T05:06:10;101522.72;;;24.39;100.00
54822;BME280;41299;43.546;16.426;2022-07-23T05:08:35;101516.31;;;24.46;100.00
54822;BME280;41299;43.546;16.426;2022-07-23T05:11:01;101518.81;;;24.49;100.00
54822;BME280;41299;43.546;16.426;2022-07-23T05:13:26;101522.25;;;24.51;100.00
54822;BME280;41299;43.546;16.426;2022-07-23T05:15:51;101524.69;;;24.56;100.00
54822;BME280;41299;43.546;16.426;2022-07-23T05:18:17;101529.03;;;24.57;100.00
54822;BME280;41299;43.546;16.426;2022-07-23T05:20:42;101529.78;;;24.60;100.00
54822;BME280;41299;43.546;16.426;2022-07-23T05:23:08;101527.03;;;24.64;100.00
54822;BME280;41299;43.546;16.426;2022-07-23T05:25:33;101528.59;;;24.68;100.00
54822;BME280;41299;43.546;16.426;2022-07-23T05:27:59;101524.91;;;24.72;100.00
54822;BME280;41299;43.546;16.426;2022-07-23T05:30:24;101534.34;;;24.78;100.00
54822;BME280;41299;43.546;16.426;2022-07-23T05:32:50;101535.91;;;24.83;100.00
54822;BME280;41299;43.546;16.426;2022-07-23T05:35:15;101534.84;;;24.88;100.00
54822;BME280;41299;43.546;16.426;2022-07-23T05:37:41;101527.59;;;24.93;100.00
54822;BME280;41299;43.546;16.426;2022-07-23T05:40:09;101528.13;;;25.01;100.00
54822;BME280;41299;43.546;16.426;2022-07-23T05:42:35;101535.75;;;25.07;100.00
54822;BME280;41299;43.546;16.426;2022-07-23T05:45:01;101537.25;;;25.15;100.00
54822;BME280;41299;43.546;16.426;2022-07-23T05:47:27;101529.09;;;25.19;100.00
54822;BME280;41299;43.546;16.426;2022-07-23T05:49:52;101526.94;;;25.69;100.00
54822;BME280;41299;43.546;16.426;2022-07-23T05:52:18;101529.69;;;27.47;100.00
54822;BME280;41299;43.546;16.426;2022-07-23T05:54:43;101529.72;;;29.05;100.00
54822;BME280;41299;43.546;16.426;2022-07-23T05:57:09;101538.78;;;30.17;89.68
54822;BME280;41299;43.546;16.426;2022-07-23T05:59:34;101538.84;;;30.97;84.91
54822;BME280;41299;43.546;16.426;2022-07-23T06:01:59;101545.75;;;31.64;82.24
54822;BME280;41299;43.546;16.426;2022-07-23T06:04:25;101542.88;;;32.05;79.46
54822;BME280;41299;43.546;16.426;2022-07-23T06:06:50;101543.38;;;32.10;78.64
54822;BME280;41299;43.546;16.426;2022-07-23T06:09:16;101544.25;;;32.71;76.16
54822;BME280;41299;43.546;16.426;2022-07-23T06:11:41;101539.97;;;33.04;78.93
54822;BME280;41299;43.546;16.426;2022-07-23T06:14:07;101543.34;;;33.41;75.87
54822;BME280;41299;43.546;16.426;2022-07-23T06:16:32;101541.72;;;32.92;81.61
54822;BME280;41299;43.546;16.426;2022-07-23T06:18:57;101541.78;;;32.08;87.00
54822;BME280;41299;43.546;16.426;2022-07-23T06:21:23;101546.72;;;31.24;97.02
54822;BME280;41299;43.546;16.426;2022-07-23T06:23:48;101539.06;;;30.53;100.00
54822;BME280;41299;43.546;16.426;2022-07-23T06:26:14;101545.81;;;30.18;100.00
54822;BME280;41299;43.546;16.426;2022-07-23T06:28:39;101535.88;;;29.93;100.00
54822;BME280;41299;43.546;16.426;2022-07-23T06:31:04;101540.00;;;29.70;100.00
54822;BME280;41299;43.546;16.426;2022-07-23T06:33:30;101534.50;;;29.58;100.00
54822;BME280;41299;43.546;16.426;2022-07-23T06:35:55;101535.75;;;29.52;100.00
54822;BME280;41299;43.546;16.426;2022-07-23T06:38:20;101539.59;;;29.47;100.00
54822;BME280;41299;43.546;16.426;2022-07-23T06:40:46;101545.78;;;29.47;100.00
54822;BME280;41299;43.546;16.426;2022-07-23T06:43:11;101543.13;;;29.47;100.00
54822;BME280;41299;43.546;16.426;2022-07-23T06:45:37;101545.72;;;29.49;100.00
54822;BME280;41299;43.546;16.426;2022-07-23T06:48:02;101543.97;;;29.48;100.00
54822;BME280;41299;43.546;16.426;2022-07-23T06:50:29;101543.06;;;29.49;100.00
54822;BME280;41299;43.546;16.426;2022-07-23T06:52:54;101542.78;;;29.53;100.00
54822;BME280;41299;43.546;16.426;2022-07-23T06:55:20;101548.75;;;29.57;100.00
54822;BME280;41299;43.546;16.426;2022-07-23T06:57:45;101547.69;;;29.60;100.00
54822;BME280;41299;43.546;16.426;2022-07-23T07:00:11;101536.88;;;29.63;100.00
54822;BME280;41299;43.546;16.426;2022-07-23T07:02:36;101541.25;;;29.64;100.00
54822;BME280;41299;43.546;16.426;2022-07-23T07:05:02;101537.63;;;29.65;100.00
54822;BME280;41299;43.546;16.426;2022-07-23T07:07:28;101533.94;;;29.68;100.00
54822;BME280;41299;43.546;16.426;2022-07-23T07:09:53;101548.63;;;29.73;100.00
54822;BME280;41299;43.546;16.426;2022-07-23T07:12:19;101542.16;;;29.77;100.00
54822;BME280;41299;43.546;16.426;2022-07-23T07:14:44;101546.63;;;29.77;100.00
54822;BME280;41299;43.546;16.426;2022-07-23T07:17:09;101548.91;;;29.83;100.00
54822;BME280;41299;43.546;16.426;2022-07-23T07:19:36;101549.44;;;29.88;100.00
54822;BME280;41299;43.546;16.426;2022-07-23T07:22:02;101552.66;;;29.93;100.00
54822;BME280;41299;43.546;16.426;2022-07-23T07:24:27;101551.50;;;29.98;100.00
54822;BME280;41299;43.546;16.426;2022-07-23T07:26:52;101554.00;;;30.01;100.00
54822;BME280;41299;43.546;16.426;2022-07-23T07:29:18;101556.16;;;30.09;100.00
54822;BME280;41299;43.546;16.426;2022-07-23T07:31:43;101552.19;;;30.16;100.00
54822;BME280;41299;43.546;16.426;2022-07-23T07:34:09;101554.53;;;30.21;100.00
54822;BME280;41299;43.546;16.426;2022-07-23T07:36:35;101552.59;;;30.23;100.00
54822;BME280;41299;43.546;16.426;2022-07-23T07:39:03;101551.91;;;30.33;100.00
54822;BME280;41299;43.546;16.426;2022-07-23T07:41:30;101550.63;;;30.39;100.00
54822;BME280;41299;43.546;16.426;2022-07-23T07:43:55;101544.91;;;30.45;100.00
54822;BME280;41299;43.546;16.426;2022-07-23T07:46:21;101541.31;;;30.59;97.85
54822;BME280;41299;43.546;16.426;2022-07-23T07:48:49;101554.78;;;30.71;91.52
54822;BME280;41299;43.546;16.426;2022-07-23T07:51:15;101555.97;;;30.80;87.61
54822;BME280;41299;43.546;16.426;2022-07-23T07:53:40;101549.19;;;30.89;90.23
54822;BME280;41299;43.546;16.426;2022-07-23T07:56:06;101555.91;;;30.94;94.76
54822;BME280;41299;43.546;16.426;2022-07-23T07:58:31;101553.78;;;30.99;89.69
54822;BME280;41299;43.546;16.426;2022-07-23T08:00:57;101553.25;;;31.07;92.15
54822;BME280;41299;43.546;16.426;2022-07-23T08:03:22;101557.28;;;31.13;87.38
54822;BME280;41299;43.546;16.426;2022-07-23T08:05:47;101562.59;;;31.13;80.19
54822;BME280;41299;43.546;16.426;2022-07-23T08:08:13;101559.41;;;31.21;75.39
54822;BME280;41299;43.546;16.426;2022-07-23T08:10:41;101564.41;;;31.25;74.19
54822;BME280;41299;43.546;16.426;2022-07-23T08:13:07;101561.56;;;31.29;71.04
54822;BME280;41299;43.546;16.426;2022-07-23T08:15:32;101555.19;;;31.31;65.80
54822;BME280;41299;43.546;16.426;2022-07-23T08:17:58;101567.75;;;31.42;68.05
54822;BME280;41299;43.546;16.426;2022-07-23T08:20:25;101564.44;;;31.51;67.48
54822;BME280;41299;43.546;16.426;2022-07-23T08:22:59;101557.69;;;31.59;64.94
54822;BME280;41299;43.546;16.426;2022-07-23T08:27:54;101559.59;;;31.70;62.27
54822;BME280;41299;43.546;16.426;2022-07-23T08:30:20;101561.94;;;31.74;62.43
54822;BME280;41299;43.546;16.426;2022-07-23T08:33:06;101567.88;;;31.78;70.79
54822;BME280;41299;43.546;16.426;2022-07-23T08:35:35;101573.84;;;31.82;70.77
54822;BME280;41299;43.546;16.426;2022-07-23T08:38:09;101556.88;;;31.83;69.50
54822;BME280;41299;43.546;16.426;2022-07-23T08:40:39;101566.41;;;31.87;69.02
54822;BME280;41299;43.546;16.426;2022-07-23T08:43:06;101563.41;;;31.91;64.03
54822;BME280;41299;43.546;16.426;2022-07-23T08:45:36;101563.19;;;31.95;60.17
54822;BME280;41299;43.546;16.426;2022-07-23T08:48:03;101560.41;;;31.96;62.56
54822;BME280;41299;43.546;16.426;2022-07-23T08:50:30;101563.47;;;32.03;61.74
54822;BME280;41299;43.546;16.426;2022-07-23T08:52:56;101560.22;;;32.11;61.13
54822;BME280;41299;43.546;16.426;2022-07-23T08:55:23;101561.00;;;32.13;58.81
54822;BME280;41299;43.546;16.426;2022-07-23T08:57:50;101556.88;;;32.20;59.65
54822;BME280;41299;43.546;16.426;2022-07-23T09:00:17;101559.81;;;32.28;59.26
54822;BME280;41299;43.546;16.426;2022-07-23T09:02:44;101564.59;;;32.36;61.10
54822;BME280;41299;43.546;16.426;2022-07-23T09:05:10;101561.72;;;32.39;56.33
54822;BME280;41299;43.546;16.426;2022-07-23T09:07:37;101558.00;;;32.42;51.50
54822;BME280;41299;43.546;16.426;2022-07-23T09:10:10;101556.56;;;32.49;53.13
54822;BME280;41299;43.546;16.426;2022-07-23T09:12:37;101556.34;;;32.52;54.47
54822;BME280;41299;43.546;16.426;2022-07-23T09:15:07;101553.91;;;32.61;51.97
54822;BME280;41299;43.546;16.426;2022-07-23T09:17:38;101554.06;;;32.70;55.10
54822;BME280;41299;43.546;16.426;2022-07-23T09:20:11;101554.22;;;32.80;62.82
54822;BME280;41299;43.546;16.426;2022-07-23T09:22:37;101554.69;;;32.85;63.45
54822;BME280;41299;43.546;16.426;2022-07-23T09:25:08;101547.44;;;32.88;59.29
54822;BME280;41299;43.546;16.426;2022-07-23T09:30:16;101551.44;;;32.93;45.83
54822;BME280;41299;43.546;16.426;2022-07-23T09:32:42;101547.50;;;32.99;46.57
54822;BME280;41299;43.546;16.426;2022-07-23T09:35:08;101550.06;;;33.12;46.12
54822;BME280;41299;43.546;16.426;2022-07-23T09:37:34;101548.59;;;33.19;41.83
54822;BME280;41299;43.546;16.426;2022-07-23T09:40:17;101551.50;;;33.28;41.98
54822;BME280;41299;43.546;16.426;2022-07-23T09:42:54;101550.66;;;33.38;43.20
54822;BME280;41299;43.546;16.426;2022-07-23T09:45:20;101545.81;;;33.44;43.60
54822;BME280;41299;43.546;16.426;2022-07-23T09:47:46;101546.53;;;33.46;44.51
54822;BME280;41299;43.546;16.426;2022-07-23T09:50:12;101543.97;;;33.56;43.86
54822;BME280;41299;43.546;16.426;2022-07-23T09:52:42;101542.66;;;33.61;46.91
54822;BME280;41299;43.546;16.426;2022-07-23T09:55:09;101543.88;;;33.57;50.75
54822;BME280;41299;43.546;16.426;2022-07-23T09:57:34;101541.91;;;33.59;51.58
54822;BME280;41299;43.546;16.426;2022-07-23T10:00:04;101540.69;;;33.63;50.84
54822;BME280;41299;43.546;16.426;2022-07-23T10:02:34;101531.97;;;33.61;47.22
54822;BME280;41299;43.546;16.426;2022-07-23T10:05:01;101533.66;;;33.62;48.49
54822;BME280;41299;43.546;16.426;2022-07-23T10:07:27;101529.75;;;33.67;50.67
54822;BME280;41299;43.546;16.426;2022-07-23T10:09:56;101534.59;;;33.73;53.71
54822;BME280;41299;43.546;16.426;2022-07-23T10:12:24;101528.75;;;33.79;50.21
54822;BME280;41299;43.546;16.426;2022-07-23T10:14:52;101528.38;;;33.84;48.25
54822;BME280;41299;43.546;16.426;2022-07-23T10:17:18;101529.19;;;33.96;46.40
54822;BME280;41299;43.546;16.426;2022-07-23T10:19:44;101532.34;;;34.01;42.53
54822;BME280;41299;43.546;16.426;2022-07-23T10:22:15;101528.91;;;34.10;40.27
54822;BME280;41299;43.546;16.426;2022-07-23T10:25:18;101523.53;;;34.22;38.90
54822;BME280;41299;43.546;16.426;2022-07-23T10:30:45;101523.69;;;34.41;35.68
54822;BME280;41299;43.546;16.426;2022-07-23T10:41:02;101514.09;;;34.39;34.47
54822;BME280;41299;43.546;16.426;2022-07-23T10:43:29;101514.91;;;34.39;35.13
54822;BME280;41299;43.546;16.426;2022-07-23T10:45:56;101515.84;;;34.50;36.94
54822;BME280;41299;43.546;16.426;2022-07-23T10:48:24;101515.31;;;34.56;35.88
54822;BME280;41299;43.546;16.426;2022-07-23T10:51:11;101509.13;;;34.55;35.25
54822;BME280;41299;43.546;16.426;2022-07-23T10:56:16;101512.88;;;34.64;34.94
54822;BME280;41299;43.546;16.426;2022-07-23T10:58:50;101506.97;;;34.70;35.04
54822;BME280;41299;43.546;16.426;2022-07-23T11:01:36;101509.00;;;34.78;33.67
54822;BME280;41299;43.546;16.426;2022-07-23T11:04:03;101501.69;;;34.80;34.90
54822;BME280;41299;43.546;16.426;2022-07-23T11:09:38;101499.94;;;35.01;37.50
54822;BME280;41299;43.546;16.426;2022-07-23T11:15:09;101494.31;;;35.04;36.98
54822;BME280;41299;43.546;16.426;2022-07-23T11:20:19;101490.84;;;35.13;38.80
54822;BME280;41299;43.546;16.426;2022-07-23T11:27:44;101484.56;;;35.34;35.91
54822;BME280;41299;43.546;16.426;2022-07-23T11:35:38;101488.50;;;35.30;51.72
54822;BME280;41299;43.546;16.426;2022-07-23T11:38:13;101497.34;;;35.20;64.84
54822;BME280;41299;43.546;16.426;2022-07-23T11:40:39;101490.00;;;34.91;58.11
54822;BME280;41299;43.546;16.426;2022-07-23T11:43:07;101488.75;;;34.95;53.63
54822;BME280;41299;43.546;16.426;2022-07-23T11:48:00;101480.28;;;34.90;54.62
54822;BME280;41299;43.546;16.426;2022-07-23T11:50:26;101482.41;;;34.96;50.30
54822;BME280;41299;43.546;16.426;2022-07-23T11:52:53;101480.72;;;34.95;49.30
54822;BME280;41299;43.546;16.426;2022-07-23T11:55:19;101481.97;;;34.91;44.42
54822;BME280;41299;43.546;16.426;2022-07-23T11:57:45;101475.22;;;34.87;46.05
54822;BME280;41299;43.546;16.426;2022-07-23T12:00:13;101479.56;;;34.88;44.18
54822;BME280;41299;43.546;16.426;2022-07-23T12:02:41;101472.13;;;34.92;44.57
54822;BME280;41299;43.546;16.426;2022-07-23T12:05:11;101473.66;;;34.84;40.58
54822;BME280;41299;43.546;16.426;2022-07-23T12:07:39;101471.78;;;34.85;45.17
54822;BME280;41299;43.546;16.426;2022-07-23T12:12:39;101471.78;;;34.85;43.37
54822;BME280;41299;43.546;16.426;2022-07-23T12:15:05;101475.91;;;34.89;42.16
54822;BME280;41299;43.546;16.426;2022-07-23T12:17:33;101472.28;;;35.00;42.93
54822;BME280;41299;43.546;16.426;2022-07-23T12:20:00;101471.56;;;34.98;40.54
54822;BME280;41299;43.546;16.426;2022-07-23T12:22:36;101467.66;;;35.02;43.30
54822;BME280;41299;43.546;16.426;2022-07-23T12:25:06;101464.91;;;35.14;43.71
54822;BME280;41299;43.546;16.426;2022-07-23T12:27:33;101464.59;;;35.17;43.09
54822;BME280;41299;43.546;16.426;2022-07-23T12:29:58;101462.09;;;35.25;46.74
54822;BME280;41299;43.546;16.426;2022-07-23T12:32:26;101462.53;;;35.30;48.01
54822;BME280;41299;43.546;16.426;2022-07-23T12:35:07;101460.56;;;35.32;46.85
54822;BME280;41299;43.546;16.426;2022-07-23T12:37:36;101458.44;;;35.36;43.61
54822;BME280;41299;43.546;16.426;2022-07-23T12:40:22;101452.53;;;35.32;41.64
54822;BME280;41299;43.546;16.426;2022-07-23T12:42:50;101459.88;;;35.40;41.59
54822;BME280;41299;43.546;16.426;2022-07-23T12:45:17;101458.63;;;35.44;39.05
54822;BME280;41299;43.546;16.426;2022-07-23T12:48:03;101455.09;;;35.54;40.03
54822;BME280;41299;43.546;16.426;2022-07-23T12:50:38;101461.66;;;35.61;40.02
54822;BME280;41299;43.546;16.426;2022-07-23T12:53:12;101452.84;;;35.59;39.12
54822;BME280;41299;43.546;16.426;2022-07-23T12:55:38;101446.91;;;35.55;39.89
54822;BME280;41299;43.546;16.426;2022-07-23T13:00:32;101455.16;;;35.73;38.54
54822;BME280;41299;43.546;16.426;2022-07-23T13:02:58;101452.34;;;35.85;37.28
54822;BME280;41299;43.546;16.426;2022-07-23T13:05:23;101440.16;;;35.90;38.39
54822;BME280;41299;43.546;16.426;2022-07-23T13:07:48;101451.03;;;35.89;38.22
54822;BME280;41299;43.546;16.426;2022-07-23T13:10:14;101443.28;;;35.96;39.78
54822;BME280;41299;43.546;16.426;2022-07-23T13:12:39;101440.16;;;35.90;40.16
54822;BME280;41299;43.546;16.426;2022-07-23T13:15:05;101447.25;;;36.01;40.85
54822;BME280;41299;43.546;16.426;2022-07-23T13:17:31;101441.31;;;35.98;43.62